sensor_id;sensor_type;location;lat;lon;timestamp;pressure;altitude;pressure_sealevel;temperature;humidity
34921;BME280;21128;50.016;20.002;2023-03-25T00:01:17;97778.12;;;12.78;69.90
34921;BME280;21128;50.016;20.002;2023-03-25T00:04:04;97782.91;;;12.75;69.81
34921;BME280;21128;50.016;20.002;2023-03-25T00:06:49;97792.02;;;12.72;71.38
34921;BME280;21128;50.016;20.002;2023-03-25T00:09:35;97779.18;;;12.69;70.25
34921;BME280;21128;50.016;20.002;2023-03-25T00:12:20;97776.09;;;12.65;71.07
34921;BME280;21128;50.016;20.002;2023-03-25T00:15:07;97780.73;;;12.63;70.75
34921;BME280;21128;50.016;20.002;2023-03-25T00:17:53;97781.89;;;12.61;71.77
34921;BME280;21128;50.016;20.002;2023-03-25T00:20:40;97777.81;;;12.58;71.89
34921;BME280;21128;50.016;20.002;2023-03-25T00:23:26;97778.00;;;12.57;71.87
34921;BME280;21128;50.016;20.002;2023-03-25T00:26:12;97771.91;;;12.56;71.73
34921;BME280;21128;50.016;20.002;2023-03-25T00:28:58;97768.28;;;12.57;71.96
34921;BME280;21128;50.016;20.002;2023-03-25T00:31:43;97764.01;;;12.56;71.58
34921;BME280;21128;50.016;20.002;2023-03-25T00:34:29;97765.64;;;12.57;72.09
34921;BME280;21128;50.016;20.002;2023-03-25T00:37:15;97762.19;;;12.57;71.65
34921;BME280;21128;50.016;20.002;2023-03-25T00:40:02;97766.45;;;12.58;71.78
34921;BME280;21128;50.016;20.002;2023-03-25T00:42:49;97756.73;;;12.58;72.03
34921;BME280;21128;50.016;20.002;2023-03-25T00:45:34;97749.83;;;12.57;72.67
34921;BME280;21128;50.016;20.002;2023-03-25T00:48:20;97748.83;;;12.58;71.93
34921;BME280;21128;50.016;20.002;2023-03-25T00:51:06;97752.09;;;12.60;71.94
34921;BME280;21128;50.016;20.002;2023-03-25T00:54:00;97753.09;;;12.59;71.66
34921;BME280;21128;50.016;20.002;2023-03-25T00:56:47;97752.47;;;12.57;72.28
34921;BME280;21128;50.016;20.002;2023-03-25T00:59:33;97761.38;;;12.56;71.73
34921;BME280;21128;50.016;20.002;2023-03-25T01:02:19;97758.92;;;12.55;72.35
34921;BME280;21128;50.016;20.002;2023-03-25T01:05:06;97765.35;;;12.52;72.05
34921;BME280;21128;50.016;20.002;2023-03-25T01:07:52;97762.09;;;12.50;71.88
34921;BME280;21128;50.016;20.002;2023-03-25T01:10:38;97758.64;;;12.50;72.43
34921;BME280;21128;50.016;20.002;2023-03-25T01:13:23;97759.64;;;12.49;71.83
34921;BME280;21128;50.016;20.002;2023-03-25T01:16:09;97759.64;;;12.49;72.00
34921;BME280;21128;50.016;20.002;2023-03-25T01:18:55;97757.19;;;12.47;72.48
34921;BME280;21128;50.016;20.002;2023-03-25T01:21:41;97750.92;;;12.48;72.42
34921;BME280;21128;50.016;20.002;2023-03-25T01:24:26;97751.73;;;12.49;72.47
34921;BME280;21128;50.016;20.002;2023-03-25T01:27:12;97750.73;;;12.50;73.13
34921;BME280;21128;50.016;20.002;2023-03-25T01:29:57;97748.91;;;12.50;72.60
34921;BME280;21128;50.016;20.002;2023-03-25T01:32:43;97751.55;;;12.50;73.63
34921;BME280;21128;50.016;20.002;2023-03-25T01:35:29;97749.55;;;12.52;73.81
34921;BME280;21128;50.016;20.002;2023-03-25T01:38:14;97750.73;;;12.50;73.68
34921;BME280;21128;50.016;20.002;2023-03-25T01:41:00;97758.00;;;12.48;74.55
34921;BME280;21128;50.016;20.002;2023-03-25T01:44:08;97759.20;;;12.45;74.54
34921;BME280;21128;50.016;20.002;2023-03-25T01:46:55;97762.17;;;12.42;74.29
34921;BME280;21128;50.016;20.002;2023-03-25T01:49:44;97747.55;;;12.39;74.81
34921;BME280;21128;50.016;20.002;2023-03-25T01:52:31;97741.65;;;12.37;74.31
34921;BME280;21128;50.016;20.002;2023-03-25T01:55:17;97744.47;;;12.36;75.42
34921;BME280;21128;50.016;20.002;2023-03-25T01:58:14;97743.17;;;12.32;75.20
34921;BME280;21128;50.016;20.002;2023-03-25T02:01:02;97735.80;;;12.27;75.71
34921;BME280;21128;50.016;20.002;2023-03-25T02:03:49;97729.90;;;12.25;75.71
34921;BME280;21128;50.016;20.002;2023-03-25T02:06:40;97733.09;;;12.21;76.01
34921;BME280;21128;50.016;20.002;2023-03-25T02:09:26;97728.97;;;12.18;77.00
34921;BME280;21128;50.016;20.002;2023-03-25T02:12:12;97721.44;;;12.15;77.18
34921;BME280;21128;50.016;20.002;2023-03-25T02:15:01;97724.26;;;12.14;77.08
34921;BME280;21128;50.016;20.002;2023-03-25T02:17:54;97727.89;;;12.13;77.88
34921;BME280;21128;50.016;20.002;2023-03-25T02:25:38;97729.42;;;12.07;79.38
34921;BME280;21128;50.016;20.002;2023-03-25T02:37:44;97742.02;;;11.97;81.06
34921;BME280;21128;50.016;20.002;2023-03-25T02:40:45;97742.20;;;11.95;80.55
34921;BME280;21128;50.016;20.002;2023-03-25T02:46:42;97751.73;;;11.96;80.68
34921;BME280;21128;50.016;20.002;2023-03-25T02:49:39;97747.09;;;11.98;80.88
34921;BME280;21128;50.016;20.002;2023-03-25T02:52:31;97747.09;;;11.98;81.19
34921;BME280;21128;50.016;20.002;2023-03-25T02:55:19;97753.00;;;12.00;83.36
34921;BME280;21128;50.016;20.002;2023-03-25T02:58:16;97748.73;;;11.99;82.20
34921;BME280;21128;50.016;20.002;2023-03-25T03:01:02;97750.36;;;12.00;81.60
34921;BME280;21128;50.016;20.002;2023-03-25T03:03:48;97748.40;;;12.02;82.21
34921;BME280;21128;50.016;20.002;2023-03-25T03:06:38;97757.75;;;12.05;82.94
34921;BME280;21128;50.016;20.002;2023-03-25T03:09:38;97756.93;;;12.04;83.45
34921;BME280;21128;50.016;20.002;2023-03-25T03:16:03;97753.93;;;12.07;83.29
34921;BME280;21128;50.016;20.002;2023-03-25T03:19:24;97758.20;;;12.08;83.61
34921;BME280;21128;50.016;20.002;2023-03-25T03:22:43;97763.47;;;12.08;84.79
34921;BME280;21128;50.016;20.002;2023-03-25T03:25:54;97765.28;;;12.08;84.29
34921;BME280;21128;50.016;20.002;2023-03-25T03:28:55;97760.02;;;12.08;85.07
34921;BME280;21128;50.016;20.002;2023-03-25T03:34:55;97770.73;;;12.06;86.71
34921;BME280;21128;50.016;20.002;2023-03-25T03:37:46;97768.46;;;12.03;87.14
34921;BME280;21128;50.016;20.002;2023-03-25T03:40:35;97774.55;;;12.04;88.18
34921;BME280;21128;50.016;20.002;2023-03-25T03:43:30;97772.73;;;12.04;87.76
34921;BME280;21128;50.016;20.002;2023-03-25T03:46:23;97771.25;;;12.02;88.04
34921;BME280;21128;50.016;20.002;2023-03-25T03:49:16;97782.14;;;11.99;89.04
34921;BME280;21128;50.016;20.002;2023-03-25T03:55:36;97792.22;;;11.95;88.49
34921;BME280;21128;50.016;20.002;2023-03-25T03:58:19;97792.22;;;11.95;88.38
34921;BME280;21128;50.016;20.002;2023-03-25T04:01:33;97786.28;;;11.93;88.09
34921;BME280;21128;50.016;20.002;2023-03-25T04:04:22;97800.45;;;11.92;87.26
34921;BME280;21128;50.016;20.002;2023-03-25T04:07:14;97801.27;;;11.93;86.54
34921;BME280;21128;50.016;20.002;2023-03-25T04:13:01;97809.34;;;11.91;87.19
34921;BME280;21128;50.016;20.002;2023-03-25T04:15:49;97808.70;;;11.89;87.04
34921;BME280;21128;50.016;20.002;2023-03-25T04:18:35;97817.60;;;11.88;86.61
34921;BME280;21128;50.016;20.002;2023-03-25T04:21:21;97805.77;;;11.84;86.90
34921;BME280;21128;50.016;20.002;2023-03-25T04:24:06;97818.11;;;11.83;87.09
34921;BME280;21128;50.016;20.002;2023-03-25T04:26:52;97816.66;;;11.81;86.16
34921;BME280;21128;50.016;20.002;2023-03-25T04:29:38;97815.98;;;11.79;86.14
34921;BME280;21128;50.016;20.002;2023-03-25T04:32:33;97830.65;;;11.73;83.48
34921;BME280;21128;50.016;20.002;2023-03-25T04:35:19;97836.27;;;11.70;82.84
34921;BME280;21128;50.016;20.002;2023-03-25T04:38:06;97827.25;;;11.65;81.58
34921;BME280;21128;50.016;20.002;2023-03-25T04:40:52;97828.60;;;11.61;81.06
34921;BME280;21128;50.016;20.002;2023-03-25T04:43:38;97830.10;;;11.55;80.95
34921;BME280;21128;50.016;20.002;2023-03-25T04:46:24;97833.23;;;11.50;79.81
34921;BME280;21128;50.016;20.002;2023-03-25T04:49:17;97830.32;;;11.45;79.40
34921;BME280;21128;50.016;20.002;2023-03-25T04:52:03;97827.73;;;11.37;79.23
34921;BME280;21128;50.016;20.002;2023-03-25T04:54:49;97838.11;;;11.31;78.71
34921;BME280;21128;50.016;20.002;2023-03-25T04:57:44;97838.46;;;11.27;78.92
34921;BME280;21128;50.016;20.002;2023-03-25T05:00:30;97845.85;;;11.24;78.56
34921;BME280;21128;50.016;20.002;2023-03-25T05:03:17;97846.52;;;11.18;78.27
34921;BME280;21128;50.016;20.002;2023-03-25T05:06:08;97853.13;;;11.14;77.88
34921;BME280;21128;50.016;20.002;2023-03-25T05:08:55;97860.05;;;11.07;77.91
34921;BME280;21128;50.016;20.002;2023-03-25T05:11:42;97867.78;;;11.00;78.04
34921;BME280;21128;50.016;20.002;2023-03-25T05:14:28;97865.34;;;10.90;78.18
34921;BME280;21128;50.016;20.002;2023-03-25T05:17:13;97859.78;;;10.85;78.48
34921;BME280;21128;50.016;20.002;2023-03-25T05:19:59;97870.78;;;10.81;78.26
34921;BME280;21128;50.016;20.002;2023-03-25T05:22:45;97862.74;;;10.74;78.31
34921;BME280;21128;50.016;20.002;2023-03-25T05:25:30;97866.37;;;10.65;78.29
34921;BME280;21128;50.016;20.002;2023-03-25T05:28:19;97875.89;;;10.58;78.78
34921;BME280;21128;50.016;20.002;2023-03-25T05:31:04;97883.64;;;10.51;79.00
34921;BME280;21128;50.016;20.002;2023-03-25T05:33:52;97881.48;;;10.47;79.02
34921;BME280;21128;50.016;20.002;2023-03-25T05:36:39;97867.87;;;10.43;79.31
34921;BME280;21128;50.016;20.002;2023-03-25T05:39:26;97869.01;;;10.40;80.28
34921;BME280;21128;50.016;20.002;2023-03-25T05:42:12;97865.73;;;10.38;79.42
34921;BME280;21128;50.016;20.002;2023-03-25T05:44:58;97872.96;;;10.36;79.79
34921;BME280;21128;50.016;20.002;2023-03-25T05:47:44;97875.59;;;10.36;79.70
34921;BME280;21128;50.016;20.002;2023-03-25T05:50:30;97881.83;;;10.35;80.45
34921;BME280;21128;50.016;20.002;2023-03-25T05:53:16;97879.85;;;10.37;80.18
34921;BME280;21128;50.016;20.002;2023-03-25T05:56:02;97882.95;;;10.41;81.76
34921;BME280;21128;50.016;20.002;2023-03-25T05:58:55;97893.63;;;10.39;81.68
34921;BME280;21128;50.016;20.002;2023-03-25T06:01:42;97892.16;;;10.37;82.67
34921;BME280;21128;50.016;20.002;2023-03-25T06:04:29;97879.85;;;10.37;82.48
34921;BME280;21128;50.016;20.002;2023-03-25T06:07:18;97880.50;;;10.39;81.94
34921;BME280;21128;50.016;20.002;2023-03-25T06:10:09;97879.52;;;10.40;82.76
34921;BME280;21128;50.016;20.002;2023-03-25T06:12:55;97890.84;;;10.41;82.78
34921;BME280;21128;50.016;20.002;2023-03-25T06:15:40;97889.84;;;10.42;83.14
34921;BME280;21128;50.016;20.002;2023-03-25T06:18:26;97896.59;;;10.45;83.14
34921;BME280;21128;50.016;20.002;2023-03-25T06:21:11;97897.25;;;10.47;83.03
34921;BME280;21128;50.016;20.002;2023-03-25T06:23:58;97899.40;;;10.51;83.50
34921;BME280;21128;50.016;20.002;2023-03-25T06:26:44;97904.48;;;10.53;83.10
34921;BME280;21128;50.016;20.002;2023-03-25T06:29:30;97905.30;;;10.53;83.36
34921;BME280;21128;50.016;20.002;2023-03-25T06:32:16;97901.03;;;10.52;82.92
34921;BME280;21128;50.016;20.002;2023-03-25T06:35:01;97901.52;;;10.56;83.09
34921;BME280;21128;50.016;20.002;2023-03-25T06:37:48;97902.84;;;10.60;82.95
34921;BME280;21128;50.016;20.002;2023-03-25T06:40:36;97899.22;;;10.61;82.36
34921;BME280;21128;50.016;20.002;2023-03-25T06:43:22;97899.05;;;10.62;82.98
34921;BME280;21128;50.016;20.002;2023-03-25T06:46:08;97904.14;;;10.64;82.72
34921;BME280;21128;50.016;20.002;2023-03-25T06:48:54;97907.41;;;10.66;83.53
34921;BME280;21128;50.016;20.002;2023-03-25T06:51:39;97912.67;;;10.66;84.07
34921;BME280;21128;50.016;20.002;2023-03-25T06:54:31;97917.92;;;10.66;83.69
34921;BME280;21128;50.016;20.002;2023-03-25T06:57:30;97921.88;;;10.62;85.22
34921;BME280;21128;50.016;20.002;2023-03-25T07:00:16;97929.11;;;10.60;85.49
34921;BME280;21128;50.016;20.002;2023-03-25T07:03:09;97931.06;;;10.58;85.36
34921;BME280;21128;50.016;20.002;2023-03-25T07:05:55;97928.13;;;10.61;85.86
34921;BME280;21128;50.016;20.002;2023-03-25T07:08:41;97914.98;;;10.61;86.06
34921;BME280;21128;50.016;20.002;2023-03-25T07:11:28;97917.44;;;10.62;85.74
34921;BME280;21128;50.016;20.002;2023-03-25T07:14:16;97914.48;;;10.65;85.68
34921;BME280;21128;50.016;20.002;2023-03-25T07:17:02;97916.45;;;10.71;86.04
34921;BME280;21128;50.016;20.002;2023-03-25T07:19:49;97918.56;;;10.76;85.70
34921;BME280;21128;50.016;20.002;2023-03-25T07:22:35;97918.73;;;10.83;85.65
34921;BME280;21128;50.016;20.002;2023-03-25T07:25:21;97921.35;;;10.91;85.38
34921;BME280;21128;50.016;20.002;2023-03-25T07:28:07;97923.32;;;10.97;84.94
34921;BME280;21128;50.016;20.002;2023-03-25T07:30:53;97920.86;;;11.04;84.25
34921;BME280;21128;50.016;20.002;2023-03-25T07:33:38;97912.13;;;11.11;84.29
34921;BME280;21128;50.016;20.002;2023-03-25T07:36:24;97918.02;;;11.21;83.72
34921;BME280;21128;50.016;20.002;2023-03-25T07:39:11;97918.31;;;11.26;83.42
34921;BME280;21128;50.016;20.002;2023-03-25T07:41:57;97915.84;;;11.33;82.80
34921;BME280;21128;50.016;20.002;2023-03-25T07:44:42;97919.27;;;11.42;83.14
34921;BME280;21128;50.016;20.002;2023-03-25T07:47:28;97914.14;;;11.48;82.81
34921;BME280;21128;50.016;20.002;2023-03-25T07:50:14;97909.84;;;11.55;82.58
34921;BME280;21128;50.016;20.002;2023-03-25T07:53:00;97910.17;;;11.61;82.52
34921;BME280;21128;50.016;20.002;2023-03-25T07:55:51;97903.56;;;11.65;83.09
34921;BME280;21128;50.016;20.002;2023-03-25T07:58:37;97894.95;;;11.79;82.50
34921;BME280;21128;50.016;20.002;2023-03-25T08:01:23;97899.48;;;11.93;83.09
34921;BME280;21128;50.016;20.002;2023-03-25T08:04:08;97897.57;;;12.10;82.47
34921;BME280;21128;50.016;20.002;2023-03-25T08:06:54;97898.01;;;12.22;82.25
34921;BME280;21128;50.016;20.002;2023-03-25T08:09:40;97906.36;;;12.25;81.61
34921;BME280;21128;50.016;20.002;2023-03-25T08:12:26;97901.67;;;12.35;81.64
34921;BME280;21128;50.016;20.002;2023-03-25T08:15:12;97894.20;;;12.47;80.95
34921;BME280;21128;50.016;20.002;2023-03-25T08:17:58;97906.37;;;12.48;80.35
34921;BME280;21128;50.016;20.002;2023-03-25T08:20:45;97903.55;;;12.50;80.92
34921;BME280;21128;50.016;20.002;2023-03-25T08:23:31;97917.03;;;12.55;80.51
34921;BME280;21128;50.016;20.002;2023-03-25T08:26:21;97911.39;;;12.58;80.42
34921;BME280;21128;50.016;20.002;2023-03-25T08:29:06;97912.26;;;12.73;80.76
34921;BME280;21128;50.016;20.002;2023-03-25T08:31:54;97905.73;;;12.84;80.23
34921;BME280;21128;50.016;20.002;2023-03-25T08:34:40;97902.68;;;12.95;78.96
34921;BME280;21128;50.016;20.002;2023-03-25T08:37:26;97900.38;;;12.92;77.61
34921;BME280;21128;50.016;20.002;2023-03-25T08:40:11;97898.45;;;12.86;76.93
34921;BME280;21128;50.016;20.002;2023-03-25T08:42:57;97902.49;;;12.96;78.09
34921;BME280;21128;50.016;20.002;2023-03-25T08:45:43;97912.18;;;13.34;78.12
34921;BME280;21128;50.016;20.002;2023-03-25T08:48:28;97916.27;;;13.51;75.09
34921;BME280;21128;50.016;20.002;2023-03-25T08:51:13;97904.07;;;13.65;74.22
34921;BME280;21128;50.016;20.002;2023-03-25T08:54:00;97904.55;;;14.04;75.14
34921;BME280;21128;50.016;20.002;2023-03-25T08:56:46;97892.42;;;14.31;73.78
34921;BME280;21128;50.016;20.002;2023-03-25T08:59:38;97895.81;;;14.68;72.15
34921;BME280;21128;50.016;20.002;2023-03-25T09:02:24;97896.94;;;15.08;71.78
34921;BME280;21128;50.016;20.002;2023-03-25T09:05:11;97896.08;;;15.36;70.33
34921;BME280;21128;50.016;20.002;2023-03-25T09:07:57;97896.20;;;15.56;68.92
34921;BME280;21128;50.016;20.002;2023-03-25T09:10:42;97897.36;;;15.81;65.94
34921;BME280;21128;50.016;20.002;2023-03-25T09:13:28;97888.19;;;15.84;64.41
34921;BME280;21128;50.016;20.002;2023-03-25T09:16:13;97877.23;;;16.00;62.61
34921;BME280;21128;50.016;20.002;2023-03-25T09:18:59;97878.25;;;16.05;61.22
34921;BME280;21128;50.016;20.002;2023-03-25T09:21:45;97868.31;;;16.27;60.32
34921;BME280;21128;50.016;20.002;2023-03-25T09:24:31;97861.58;;;16.18;57.48
34921;BME280;21128;50.016;20.002;2023-03-25T09:27:18;97855.23;;;16.13;57.00
34921;BME280;21128;50.016;20.002;2023-03-25T09:30:05;97859.11;;;16.10;53.74
34921;BME280;21128;50.016;20.002;2023-03-25T09:32:51;97859.73;;;16.19;55.09
34921;BME280;21128;50.016;20.002;2023-03-25T09:35:39;97849.55;;;16.16;55.13
34921;BME280;21128;50.016;20.002;2023-03-25T09:38:25;97846.10;;;16.35;53.89
34921;BME280;21128;50.016;20.002;2023-03-25T09:44:30;97835.74;;;16.73;53.38
34921;BME280;21128;50.016;20.002;2023-03-25T09:47:19;97828.34;;;17.02;54.52
34921;BME280;21128;50.016;20.002;2023-03-25T09:50:10;97834.94;;;17.51;50.79
34921;BME280;21128;50.016;20.002;2023-03-25T09:53:15;97833.23;;;17.63;49.42
34921;BME280;21128;50.016;20.002;2023-03-25T09:56:13;97828.53;;;17.71;48.84
34921;BME280;21128;50.016;20.002;2023-03-25T09:59:12;97824.75;;;17.92;50.63
34921;BME280;21128;50.016;20.002;2023-03-25T10:05:19;97803.95;;;18.39;49.08
34921;BME280;21128;50.016;20.002;2023-03-25T10:24:31;97799.72;;;18.32;44.52
34921;BME280;21128;50.016;20.002;2023-03-25T10:27:38;97788.20;;;17.81;44.86
34921;BME280;21128;50.016;20.002;2023-03-25T10:30:35;97800.57;;;17.56;45.92
34921;BME280;21128;50.016;20.002;2023-03-25T10:33:27;97798.55;;;17.58;46.73
34921;BME280;21128;50.016;20.002;2023-03-25T10:36:17;97797.03;;;18.07;47.63
34921;BME280;21128;50.016;20.002;2023-03-25T10:39:10;97791.64;;;18.45;44.39
34921;BME280;21128;50.016;20.002;2023-03-25T10:42:14;97795.06;;;18.52;44.71
34921;BME280;21128;50.016;20.002;2023-03-25T10:45:04;97775.20;;;18.29;44.75
34921;BME280;21128;50.016;20.002;2023-03-25T10:48:01;97777.48;;;18.26;44.99
34921;BME280;21128;50.016;20.002;2023-03-25T10:50:51;97791.23;;;17.91;43.30
34921;BME280;21128;50.016;20.002;2023-03-25T10:53:39;97782.22;;;17.48;43.50
34921;BME280;21128;50.016;20.002;2023-03-25T10:56:57;97772.60;;;17.53;44.82
34921;BME280;21128;50.016;20.002;2023-03-25T10:59:54;97760.78;;;17.87;44.72
34921;BME280;21128;50.016;20.002;2023-03-25T11:02:42;97768.23;;;18.04;45.06
34921;BME280;21128;50.016;20.002;2023-03-25T11:05:28;97755.50;;;18.37;43.78
34921;BME280;21128;50.016;20.002;2023-03-25T11:08:15;97743.20;;;18.61;42.84
34921;BME280;21128;50.016;20.002;2023-03-25T11:11:06;97743.93;;;18.93;42.38
34921;BME280;21128;50.016;20.002;2023-03-25T11:13:55;97739.91;;;19.21;42.15
34921;BME280;21128;50.016;20.002;2023-03-25T11:16:42;97729.49;;;19.19;41.00
34921;BME280;21128;50.016;20.002;2023-03-25T11:19:36;97731.54;;;19.35;42.07
34921;BME280;21128;50.016;20.002;2023-03-25T11:22:26;97725.17;;;19.36;41.08
34921;BME280;21128;50.016;20.002;2023-03-25T11:25:24;97714.86;;;19.10;41.78
34921;BME280;21128;50.016;20.002;2023-03-25T11:28:21;97739.45;;;19.24;41.73
34921;BME280;21128;50.016;20.002;2023-03-25T11:31:17;97725.42;;;18.98;41.49
34921;BME280;21128;50.016;20.002;2023-03-25T11:37:01;97713.37;;;19.62;41.31
34921;BME280;21128;50.016;20.002;2023-03-25T11:39:51;97715.22;;;19.62;40.26
34921;BME280;21128;50.016;20.002;2023-03-25T11:42:41;97723.29;;;19.85;41.18
34921;BME280;21128;50.016;20.002;2023-03-25T11:45:35;97732.09;;;19.86;40.34
34921;BME280;21128;50.016;20.002;2023-03-25T11:48:29;97715.56;;;19.65;40.96
34921;BME280;21128;50.016;20.002;2023-03-25T11:51:25;97711.86;;;19.66;40.40
34921;BME280;21128;50.016;20.002;2023-03-25T11:54:14;97708.15;;;19.37;38.03
34921;BME280;21128;50.016;20.002;2023-03-25T11:57:06;97713.87;;;19.23;38.65
34921;BME280;21128;50.016;20.002;2023-03-25T12:00:32;97705.34;;;19.32;37.51
34921;BME280;21128;50.016;20.002;2023-03-25T12:03:24;97710.66;;;19.32;36.61
34921;BME280;21128;50.016;20.002;2023-03-25T12:08:58;97700.67;;;19.76;37.62
34921;BME280;21128;50.016;20.002;2023-03-25T12:15:04;97693.69;;;19.75;38.52
34921;BME280;21128;50.016;20.002;2023-03-25T12:18:11;97698.80;;;19.47;40.05
34921;BME280;21128;50.016;20.002;2023-03-25T12:21:37;97726.98;;;18.69;41.53
34921;BME280;21128;50.016;20.002;2023-03-25T12:44:29;97742.07;;;14.43;49.59
34921;BME280;21128;50.016;20.002;2023-03-25T12:47:26;97742.35;;;14.48;50.16
34921;BME280;21128;50.016;20.002;2023-03-25T12:59:45;97760.82;;;14.76;49.77
34921;BME280;21128;50.016;20.002;2023-03-25T13:06:10;97771.88;;;14.30;50.12
34921;BME280;21128;50.016;20.002;2023-03-25T13:11:59;97760.95;;;13.69;50.07
34921;BME280;21128;50.016;20.002;2023-03-25T13:15:04;97748.95;;;13.67;49.74
34921;BME280;21128;50.016;20.002;2023-03-25T13:18:02;97757.81;;;13.59;49.60
34921;BME280;21128;50.016;20.002;2023-03-25T13:21:03;97765.48;;;13.54;49.87
34921;BME280;21128;50.016;20.002;2023-03-25T13:24:15;97755.20;;;13.44;50.06
34921;BME280;21128;50.016;20.002;2023-03-25T13:27:01;97753.38;;;13.45;49.69
34921;BME280;21128;50.016;20.002;2023-03-25T13:29:51;97747.44;;;13.58;50.18
34921;BME280;21128;50.016;20.002;2023-03-25T13:32:48;97763.28;;;13.58;49.43
34921;BME280;21128;50.016;20.002;2023-03-25T13:35:43;97739.83;;;13.48;49.46
34921;BME280;21128;50.016;20.002;2023-03-25T13:38:45;97733.81;;;13.54;49.91
34921;BME280;21128;50.016;20.002;2023-03-25T13:41:40;97727.19;;;13.86;49.00
34921;BME280;21128;50.016;20.002;2023-03-25T13:44:35;97726.65;;;14.19;48.13
34921;BME280;21128;50.016;20.002;2023-03-25T13:47:29;97720.14;;;14.77;47.89
34921;BME280;21128;50.016;20.002;2023-03-25T13:50:26;97729.50;;;15.28;46.73
34921;BME280;21128;50.016;20.002;2023-03-25T13:53:29;97715.75;;;15.59;45.08
34921;BME280;21128;50.016;20.002;2023-03-25T13:56:30;97709.69;;;16.04;44.43
34921;BME280;21128;50.016;20.002;2023-03-25T14:15:14;97722.48;;;16.54;44.20
34921;BME280;21128;50.016;20.002;2023-03-25T14:18:03;97719.27;;;16.19;44.21
34921;BME280;21128;50.016;20.002;2023-03-25T14:20:49;97724.36;;;15.87;44.91
34921;BME280;21128;50.016;20.002;2023-03-25T14:23:35;97720.84;;;15.60;45.50
34921;BME280;21128;50.016;20.002;2023-03-25T14:26:21;97705.30;;;15.37;45.49
34921;BME280;21128;50.016;20.002;2023-03-25T14:29:14;97725.41;;;15.18;46.50
34921;BME280;21128;50.016;20.002;2023-03-25T14:38:50;97725.88;;;14.87;48.01
34921;BME280;21128;50.016;20.002;2023-03-25T14:44:43;97724.57;;;14.70;48.77
34921;BME280;21128;50.016;20.002;2023-03-25T14:47:35;97708.95;;;14.75;48.86
34921;BME280;21128;50.016;20.002;2023-03-25T14:53:11;97715.91;;;14.83;48.10
34921;BME280;21128;50.016;20.002;2023-03-25T14:55:59;97713.22;;;14.76;47.78
34921;BME280;21128;50.016;20.002;2023-03-25T14:58:53;97722.53;;;14.66;47.85
34921;BME280;21128;50.016;20.002;2023-03-25T15:01:43;97711.30;;;14.57;47.51
34921;BME280;21128;50.016;20.002;2023-03-25T15:04:37;97718.28;;;14.43;47.84
34921;BME280;21128;50.016;20.002;2023-03-25T15:10:35;97708.95;;;14.13;48.39
34921;BME280;21128;50.016;20.002;2023-03-25T15:13:33;97699.75;;;14.08;48.59
34921;BME280;21128;50.016;20.002;2023-03-25T15:19:14;97707.48;;;14.10;48.70
34921;BME280;21128;50.016;20.002;2023-03-25T15:22:04;97704.98;;;14.02;48.96
34921;BME280;21128;50.016;20.002;2023-03-25T15:24:59;97707.82;;;14.00;48.83
34921;BME280;21128;50.016;20.002;2023-03-25T15:27:55;97711.05;;;13.96;48.53
34921;BME280;21128;50.016;20.002;2023-03-25T15:31:09;97735.11;;;13.86;47.60
34921;BME280;21128;50.016;20.002;2023-03-25T15:46:25;97738.23;;;13.32;47.34
34921;BME280;21128;50.016;20.002;2023-03-25T15:55:12;97739.20;;;12.95;46.83
34921;BME280;21128;50.016;20.002;2023-03-25T15:58:39;97743.19;;;12.91;45.68
34921;BME280;21128;50.016;20.002;2023-03-25T16:01:36;97745.55;;;12.86;46.10
34921;BME280;21128;50.016;20.002;2023-03-25T16:04:46;97744.66;;;12.79;46.42
34921;BME280;21128;50.016;20.002;2023-03-25T16:07:34;97757.75;;;12.72;46.86
34921;BME280;21128;50.016;20.002;2023-03-25T16:13:15;97776.47;;;12.62;47.19
34921;BME280;21128;50.016;20.002;2023-03-25T16:16:08;97756.92;;;12.57;47.59
34921;BME280;21128;50.016;20.002;2023-03-25T16:18:55;97757.11;;;12.55;48.47
34921;BME280;21128;50.016;20.002;2023-03-25T16:21:41;97761.00;;;12.59;48.97
34921;BME280;21128;50.016;20.002;2023-03-25T16:24:28;97753.92;;;12.75;48.25
34921;BME280;21128;50.016;20.002;2023-03-25T16:27:41;97760.91;;;12.67;48.66
34921;BME280;21128;50.016;20.002;2023-03-25T16:30:35;97778.72;;;13.10;48.79
34921;BME280;21128;50.016;20.002;2023-03-25T16:33:36;97772.34;;;13.91;47.95
34921;BME280;21128;50.016;20.002;2023-03-25T16:36:22;97769.85;;;14.32;45.80
34921;BME280;21128;50.016;20.002;2023-03-25T16:39:14;97777.53;;;14.49;45.46
34921;BME280;21128;50.016;20.002;2023-03-25T16:42:19;97767.95;;;13.98;45.86
34921;BME280;21128;50.016;20.002;2023-03-25T16:45:06;97771.23;;;13.43;46.18
34921;BME280;21128;50.016;20.002;2023-03-25T16:48:05;97773.91;;;13.13;47.42
34921;BME280;21128;50.016;20.002;2023-03-25T16:50:52;97781.55;;;12.93;47.36
34921;BME280;21128;50.016;20.002;2023-03-25T16:53:39;97788.19;;;12.75;48.36
34921;BME280;21128;50.016;20.002;2023-03-25T16:59:29;97784.24;;;12.41;49.57
34921;BME280;21128;50.016;20.002;2023-03-25T17:02:36;97790.14;;;12.28;50.17
34921;BME280;21128;50.016;20.002;2023-03-25T17:05:27;97786.46;;;12.15;50.68
34921;BME280;21128;50.016;20.002;2023-03-25T17:08:15;97787.89;;;12.02;52.14
34921;BME280;21128;50.016;20.002;2023-03-25T17:11:03;97795.55;;;11.89;52.83
34921;BME280;21128;50.016;20.002;2023-03-25T17:13:51;97794.94;;;11.79;52.86
34921;BME280;21128;50.016;20.002;2023-03-25T17:16:40;97793.98;;;11.72;53.98
34921;BME280;21128;50.016;20.002;2023-03-25T17:19:26;97791.41;;;11.64;54.08
34921;BME280;21128;50.016;20.002;2023-03-25T17:22:19;97791.28;;;11.57;54.29
34921;BME280;21128;50.016;20.002;2023-03-25T17:25:24;97787.52;;;11.51;55.15
34921;BME280;21128;50.016;20.002;2023-03-25T17:34:20;97797.16;;;11.36;55.32